Time;durP1;ratioP1;P1;durP2;ratioP2;P2;SDS_P1;SDS_P2;PMS_P1;PMS_P2;Temp;Humidity;BMP_temperature;BMP_pressure;BME280_temperature;BME280_humidity;BME280_pressure;Samples;Min_cycle;Max_cycle;Signal;HPM_P1;HPM_P2
2023/06/30 00:01:21;;;;;;;;;;;;;;;;;;5044457;28;19982;-69
2023/06/30 00:03:46;;;;;;;;;;;;;;;;;;5044034;28;19928;-70
2023/06/30 00:06:11;;;;;;;;;;;;;;;;;;5043573;28;19920;-68
2023/06/30 00:08:37;;;;;;;;;;;;;;;;;;5044280;28;20398;-67
2023/06/30 00:11:02;;;;;;;;;;;;;;;;;;5031793;28;19928;-70
2023/06/30 00:13:28;;;;;;;;;;;;;;;;;;5045622;28;20489;-70
2023/06/30 00:15:54;;;;;;;;;;;;;;;;;;5044005;28;19926;-70
2023/06/30 00:18:19;;;;;;;;;;;;;;;;;;5044432;28;19916;-70
2023/06/30 00:20:45;;;;;;;;;;;;;;;;;;5061109;28;19925;-69
2023/06/30 00:23:13;;;;;;;;;;;;;;;;;;5044139;28;20659;-69
2023/06/30 00:25:38;;;;;;;;;;;;;;;;;;5048111;28;20024;-69
2023/06/30 00:28:03;;;;;;;;;;;;;;;;;;5058691;28;20726;-69
2023/06/30 00:30:29;;;;;;;;;;;;;;;;;;5042092;28;19921;-70
2023/06/30 00:32:54;;;;;;;;;;;;;;;;;;5026511;28;19928;-68
2023/06/30 00:35:20;;;;;;;;;;;;;;;;;;5045798;28;20004;-68
2023/06/30 00:37:45;;;;;;;;;;;;;;;;;;5041977;28;20560;-69
2023/06/30 00:40:10;;;;;;;;;;;;;;;;;;5043043;28;21265;-69
2023/06/30 00:42:36;;;;;;;;;;;;;;;;;;5044465;28;19956;-69
2023/06/30 00:45:01;;;;;;;;;;;;;;;;;;5040429;28;19921;-68
2023/06/30 00:47:26;;;;;;;;;;;;;;;;;;5026376;28;19948;-69
2023/06/30 00:49:52;;;;;;;;;;;;;;;;;;5042681;28;20467;-67
2023/06/30 00:52:17;;;;;;;;;;;;;;;;;;5044398;28;19932;-68
2023/06/30 00:54:43;;;;;;;;;;;;;;;;;;5047412;28;19924;-66
2023/06/30 00:57:08;;;;;;;;;;;;;;;;;;5043319;28;19921;-69
2023/06/30 00:59:33;;;;;;;;;;;;;;;;;;5042757;28;19931;-68
2023/06/30 01:01:59;;;;;;;;;;;;;;;;;;5026772;28;19932;-68
2023/06/30 01:04:24;;;;;;;;;;;;;;;;;;5037518;28;19917;-70
2023/06/30 01:06:52;;;;;;;;;;;;;;;;;;5028233;28;19920;-69
2023/06/30 01:09:18;;;;;;;;;;;;;;;;;;5042130;28;19931;-68
2023/06/30 01:11:43;;;;;;;;;;;;;;;;;;5028788;28;19920;-68
2023/06/30 01:14:09;;;;;;;;;;;;;;;;;;5043053;28;20018;-68
2023/06/30 01:16:34;;;;;;;;;;;;;;;;;;5044129;28;19948;-70
2023/06/30 01:18:59;;;;;;;;;;;;;;;;;;5056198;28;19924;-70
2023/06/30 01:21:25;;;;;;;;;;;;;;;;;;5060578;28;20568;-70
2023/06/30 01:23:50;;;;;;;;;;;;;;;;;;5057539;28;19920;-70
2023/06/30 01:26:16;;;;;;;;;;;;;;;;;;5041271;28;20023;-68
2023/06/30 01:28:41;;;;;;;;;;;;;;;;;;5044408;28;19998;-68
2023/06/30 01:31:08;;;;;;;;;;;;;;;;;;5052273;28;19924;-68
2023/06/30 01:33:34;;;;;;;;;;;;;;;;;;5047751;28;19964;-68
2023/06/30 01:36:02;;;;;;;;;;;;;;;;;;5039432;28;20164;-70
2023/06/30 01:38:27;;;;;;;;;;;;;;;;;;5029372;28;20402;-68
2023/06/30 01:40:53;;;;;;;;;;;;;;;;;;5043782;28;20018;-69
2023/06/30 01:43:18;;;;;;;;;;;;;;;;;;5033340;28;19921;-69
2023/06/30 01:45:44;;;;;;;;;;;;;;;;;;5044326;28;19920;-69
2023/06/30 01:48:09;;;;;;;;;;;;;;;;;;5049304;28;20422;-68
2023/06/30 01:50:34;;;;;;;;;;;;;;;;;;5047204;28;19924;-70
2023/06/30 01:53:00;;;;;;;;;;;;;;;;;;5048903;28;19926;-70
2023/06/30 01:55:25;;;;;;;;;;;;;;;;;;5038430;28;20773;-70
2023/06/30 01:57:51;;;;;;;;;;;;;;;;;;5050224;28;19920;-69
2023/06/30 02:00:16;;;;;;;;;;;;;;;;;;5047733;28;21100;-69
2023/06/30 02:02:41;;;;;;;;;;;;;;;;;;5047925;28;19916;-68
2023/06/30 02:05:07;;;;;;;;;;;;;;;;;;5051401;28;20399;-68
2023/06/30 02:07:32;;;;;;;;;;;;;;;;;;5061058;28;20295;-69
2023/06/30 02:09:58;;;;;;;;;;;;;;;;;;5051487;28;19925;-70
2023/06/30 02:12:23;;;;;;;;;;;;;;;;;;5047302;28;19917;-68
2023/06/30 02:14:48;;;;;;;;;;;;;;;;;;5052940;28;19920;-69
2023/06/30 02:17:14;;;;;;;;;;;;;;;;;;5037844;28;19920;-69
2023/06/30 02:19:39;;;;;;;;;;;;;;;;;;5069626;28;19968;-68
2023/06/30 02:22:04;;;;;;;;;;;;;;;;;;5068461;28;21084;-69
2023/06/30 02:24:32;;;;;;;;;;;;;;;;;;5048904;28;19920;-70
2023/06/30 02:27:00;;;;;;;;;;;;;;;;;;5051252;28;21738;-70
2023/06/30 02:29:26;;;;;;;;;;;;;;;;;;5049613;28;21866;-69
2023/06/30 02:31:51;;;;;;;;;;;;;;;;;;5030739;28;20089;-70
2023/06/30 02:34:16;;;;;;;;;;;;;;;;;;5052566;28;19966;-69
2023/06/30 02:36:42;;;;;;;;;;;;;;;;;;5048394;28;19971;-72
2023/06/30 02:39:07;;;;;;;;;;;;;;;;;;5047734;28;21848;-70
2023/06/30 02:41:34;;;;;;;;;;;;;;;;;;5036946;28;20015;-70
2023/06/30 02:44:00;;;;;;;;;;;;;;;;;;5047997;28;19927;-69
2023/06/30 02:46:25;;;;;;;;;;;;;;;;;;5042998;28;19943;-70
2023/06/30 02:48:50;;;;;;;;;;;;;;;;;;5050628;28;19921;-70
2023/06/30 02:51:16;;;;;;;;;;;;;;;;;;5051039;28;20019;-70
2023/06/30 02:53:41;;;;;;;;;;;;;;;;;;5049154;28;21965;-69
2023/06/30 02:56:06;;;;;;;;;;;;;;;;;;5049059;28;19944;-68
2023/06/30 02:58:36;;;;;;;;;;;;;;;;;;5046523;28;19927;-69
2023/06/30 03:01:01;;;;;;;;;;;;;;;;;;5044357;28;19928;-69
2023/06/30 03:03:26;;;;;;;;;;;;;;;;;;5046105;28;19966;-68
2023/06/30 03:05:52;;;;;;;;;;;;;;;;;;5035782;28;19917;-69
2023/06/30 03:08:17;;;;;;;;;;;;;;;;;;5045638;28;20042;-69
2023/06/30 03:10:42;;;;;;;;;;;;;;;;;;5042005;28;20402;-69
2023/06/30 03:13:10;;;;;;;;;;;;;;;;;;5055093;28;20007;-69
2023/06/30 03:15:36;;;;;;;;;;;;;;;;;;5061574;28;19955;-69
2023/06/30 03:18:01;;;;;;;;;;;;;;;;;;5042560;28;20062;-70
2023/06/30 03:20:27;;;;;;;;;;;;;;;;;;5058970;28;19917;-70
2023/06/30 03:22:52;;;;;;;;;;;;;;;;;;5045722;28;20392;-70
2023/06/30 03:25:18;;;;;;;;;;;;;;;;;;5035153;28;20005;-69
2023/06/30 03:27:44;;;;;;;;;;;;;;;;;;5044945;28;19931;-71
2023/06/30 03:30:09;;;;;;;;;;;;;;;;;;5060545;28;19960;-69
2023/06/30 03:32:34;;;;;;;;;;;;;;;;;;5048118;28;20291;-68
2023/06/30 03:35:02;;;;;;;;;;;;;;;;;;5044752;28;20275;-69
2023/06/30 03:37:28;;;;;;;;;;;;;;;;;;5044832;28;19920;-69
2023/06/30 03:39:53;;;;;;;;;;;;;;;;;;5047615;28;19931;-69
2023/06/30 03:42:18;;;;;;;;;;;;;;;;;;5043871;28;19923;-68
2023/06/30 03:44:44;;;;;;;;;;;;;;;;;;5044621;28;19921;-69
2023/06/30 03:47:09;;;;;;;;;;;;;;;;;;5042505;28;20335;-69
2023/06/30 03:49:34;;;;;;;;;;;;;;;;;;5045279;28;19924;-69
2023/06/30 03:52:03;;;;;;;;;;;;;;;;;;5041943;28;19921;-69
2023/06/30 03:54:28;;;;;;;;;;;;;;;;;;5055774;28;21946;-69
2023/06/30 03:56:53;;;;;;;;;;;;;;;;;;5042256;28;19920;-68
2023/06/30 03:59:19;;;;;;;;;;;;;;;;;;5028940;28;19948;-69
2023/06/30 04:01:49;;;;;;;;;;;;;;;;;;5056209;28;20868;-70
2023/06/30 04:04:15;;;;;;;;;;;;;;;;;;5043967;28;21578;-69
2023/06/30 04:06:44;;;;;;;;;;;;;;;;;;5043634;28;19920;-69
2023/06/30 04:09:09;;;;;;;;;;;;;;;;;;5030899;28;19955;-69
2023/06/30 04:11:35;;;;;;;;;;;;;;;;;;5031417;28;20007;-69
2023/06/30 04:14:00;;;;;;;;;;;;;;;;;;5044997;28;20027;-68
2023/06/30 04:16:28;;;;;;;;;;;;;;;;;;5026552;28;19927;-68
2023/06/30 04:18:53;;;;;;;;;;;;;;;;;;5059164;28;19964;-69
2023/06/30 04:21:18;;;;;;;;;;;;;;;;;;5041098;28;20014;-69
2023/06/30 04:23:43;;;;;;;;;;;;;;;;;;5042927;28;19955;-69
2023/06/30 04:26:12;;;;;;;;;;;;;;;;;;5031262;28;19949;-69
2023/06/30 04:28:37;;;;;;;;;;;;;;;;;;5058819;28;20464;-68
2023/06/30 04:31:03;;;;;;;;;;;;;;;;;;5059621;28;19929;-69
2023/06/30 04:33:28;;;;;;;;;;;;;;;;;;5041638;28;19921;-69
2023/06/30 04:35:54;;;;;;;;;;;;;;;;;;5043517;28;20032;-68
2023/06/30 04:38:19;;;;;;;;;;;;;;;;;;5044782;28;19924;-69
2023/06/30 04:40:46;;;;;;;;;;;;;;;;;;5041025;28;20516;-69
2023/06/30 04:43:12;;;;;;;;;;;;;;;;;;5043430;28;21709;-70
2023/06/30 04:45:37;;;;;;;;;;;;;;;;;;5027263;28;19920;-69
2023/06/30 04:48:02;;;;;;;;;;;;;;;;;;5031091;28;19997;-69
2023/06/30 04:50:30;;;;;;;;;;;;;;;;;;5045244;28;21414;-70
2023/06/30 04:52:55;;;;;;;;;;;;;;;;;;5043016;28;20031;-68
2023/06/30 04:55:21;;;;;;;;;;;;;;;;;;5030638;28;19943;-67
2023/06/30 04:57:47;;;;;;;;;;;;;;;;;;5042980;28;19959;-69
2023/06/30 05:00:12;;;;;;;;;;;;;;;;;;5046413;28;19916;-68
2023/06/30 05:02:40;;;;;;;;;;;;;;;;;;5042576;28;20020;-69
2023/06/30 05:05:05;;;;;;;;;;;;;;;;;;5040269;28;19927;-68
2023/06/30 05:07:31;;;;;;;;;;;;;;;;;;5043424;28;19920;-69
2023/06/30 05:09:56;;;;;;;;;;;;;;;;;;5062169;28;19947;-67
2023/06/30 05:12:21;;;;;;;;;;;;;;;;;;5031541;28;19920;-69
2023/06/30 05:14:47;;;;;;;;;;;;;;;;;;5060875;28;20026;-67
2023/06/30 05:17:12;;;;;;;;;;;;;;;;;;5044014;28;19916;-68
2023/06/30 05:19:38;;;;;;;;;;;;;;;;;;5046165;28;19920;-68
2023/06/30 05:22:03;;;;;;;;;;;;;;;;;;5046155;28;19921;-68
2023/06/30 05:24:29;;;;;;;;;;;;;;;;;;5056517;28;19989;-69
2023/06/30 05:26:55;;;;;;;;;;;;;;;;;;5057982;28;19931;-69
2023/06/30 05:29:20;;;;;;;;;;;;;;;;;;5040017;28;20229;-68
2023/06/30 05:31:46;;;;;;;;;;;;;;;;;;5041852;28;19917;-68
2023/06/30 05:34:15;;;;;;;;;;;;;;;;;;5041053;28;20565;-67
2023/06/30 05:36:44;;;;;;;;;;;;;;;;;;5030517;28;19920;-67
2023/06/30 05:39:09;;;;;;;;;;;;;;;;;;5043010;28;19934;-68
2023/06/30 05:41:34;;;;;;;;;;;;;;;;;;5038678;28;20291;-67
2023/06/30 05:44:02;;;;;;;;;;;;;;;;;;5042285;28;20447;-67
2023/06/30 05:46:28;;;;;;;;;;;;;;;;;;5058166;28;19921;-72
2023/06/30 05:48:53;;;;;;;;;;;;;;;;;;5041684;28;19935;-68
2023/06/30 05:51:19;;;;;;;;;;;;;;;;;;5043748;28;19924;-66
2023/06/30 05:53:44;;;;;;;;;;;;;;;;;;5059141;28;19997;-67
2023/06/30 05:56:12;;;;;;;;;;;;;;;;;;5026812;28;19931;-67
2023/06/30 05:58:40;;;;;;;;;;;;;;;;;;5042654;28;19921;-68
2023/06/30 06:01:08;;;;;;;;;;;;;;;;;;5043571;28;19952;-68
2023/06/30 06:03:34;;;;;;;;;;;;;;;;;;5054548;28;20075;-66
2023/06/30 06:05:59;;;;;;;;;;;;;;;;;;5044062;28;19943;-66
2023/06/30 06:08:24;;;;;;;;;;;;;;;;;;5044398;28;19921;-67
2023/06/30 06:10:52;;;;;;;;;;;;;;;;;;5044894;28;19924;-67
2023/06/30 06:13:18;;;;;;;;;;;;;;;;;;5041925;28;19920;-68
2023/06/30 06:15:46;;;;;;;;;;;;;;;;;;5023790;28;21754;-68
2023/06/30 06:18:14;;;;;;;;;;;;;;;;;;5039195;28;19921;-67
2023/06/30 06:20:40;;;;;;;;;;;;;;;;;;5028527;28;19952;-70
2023/06/30 06:23:08;;;;;;;;;;;;;;;;;;5042052;28;19967;-67
2023/06/30 06:25:33;;;;;;;;;;;;;;;;;;5044447;28;19920;-68
2023/06/30 06:27:59;;;;;;;;;;;;;;;;;;5043247;28;20005;-68
2023/06/30 06:30:27;;;;;;;;;;;;;;;;;;5045258;28;19920;-68
2023/06/30 06:32:53;;;;;;;;;;;;;;;;;;5047802;28;21841;-67
2023/06/30 06:35:21;;;;;;;;;;;;;;;;;;5057678;28;19920;-68
2023/06/30 06:37:49;;;;;;;;;;;;;;;;;;5032098;28;19947;-67
2023/06/30 06:40:14;;;;;;;;;;;;;;;;;;5050190;28;19943;-67
2023/06/30 06:42:40;;;;;;;;;;;;;;;;;;5047597;28;19916;-67
2023/06/30 06:45:05;;;;;;;;;;;;;;;;;;5051014;28;19920;-68
2023/06/30 06:47:31;;;;;;;;;;;;;;;;;;5045706;28;19921;-67
2023/06/30 06:49:56;;;;;;;;;;;;;;;;;;5047501;28;21746;-67
2023/06/30 06:52:22;;;;;;;;;;;;;;;;;;5049447;28;20327;-69
2023/06/30 06:54:49;;;;;;;;;;;;;;;;;;5062329;28;21770;-66
2023/06/30 06:57:17;;;;;;;;;;;;;;;;;;5047506;28;20403;-66
2023/06/30 06:59:45;;;;;;;;;;;;;;;;;;5045018;28;19920;-67
2023/06/30 07:02:10;;;;;;;;;;;;;;;;;;5045142;28;19921;-67
2023/06/30 07:04:36;;;;;;;;;;;;;;;;;;5048640;28;21813;-68
2023/06/30 07:07:01;;;;;;;;;;;;;;;;;;5048277;28;19987;-67
2023/06/30 07:09:29;;;;;;;;;;;;;;;;;;5031220;28;19959;-66
2023/06/30 07:11:54;;;;;;;;;;;;;;;;;;5032378;28;19930;-70
2023/06/30 07:14:23;;;;;;;;;;;;;;;;;;5057829;28;19920;-68
2023/06/30 07:16:49;;;;;;;;;;;;;;;;;;5032280;28;19927;-66
2023/06/30 07:19:17;;;;;;;;;;;;;;;;;;5028921;28;19927;-67
2023/06/30 07:21:45;;;;;;;;;;;;;;;;;;5044924;28;19924;-67
2023/06/30 07:24:11;;;;;;;;;;;;;;;;;;5048360;28;19964;-67
2023/06/30 07:26:36;;;;;;;;;;;;;;;;;;5046568;28;20035;-67
2023/06/30 07:29:04;;;;;;;;;;;;;;;;;;5046702;28;20628;-68
2023/06/30 07:31:31;;;;;;;;;;;;;;;;;;5043660;28;19927;-66
2023/06/30 07:33:56;;;;;;;;;;;;;;;;;;5044350;28;19927;-69
2023/06/30 07:36:22;;;;;;;;;;;;;;;;;;5049204;28;19921;-68
2023/06/30 07:38:47;;;;;;;;;;;;;;;;;;5047155;28;20007;-69
2023/06/30 07:41:12;;;;;;;;;;;;;;;;;;5061551;28;19916;-66
2023/06/30 07:43:40;;;;;;;;;;;;;;;;;;5047095;28;20011;-67
2023/06/30 07:46:06;;;;;;;;;;;;;;;;;;5044985;28;19986;-67
2023/06/30 07:48:34;;;;;;;;;;;;;;;;;;5045316;28;20003;-67
2023/06/30 07:50:59;;;;;;;;;;;;;;;;;;5031215;28;19924;-69
2023/06/30 07:53:24;;;;;;;;;;;;;;;;;;5044349;28;20380;-67
2023/06/30 07:55:56;;;;;;;;;;;;;;;;;;5032531;28;19916;-70
2023/06/30 07:58:22;;;;;;;;;;;;;;;;;;5048299;28;19946;-70
2023/06/30 08:00:50;;;;;;;;;;;;;;;;;;5030730;28;20641;-68
2023/06/30 08:03:15;;;;;;;;;;;;;;;;;;5032487;28;20005;-67
2023/06/30 08:05:44;;;;;;;;;;;;;;;;;;5045539;28;20070;-68
2023/06/30 08:08:12;;;;;;;;;;;;;;;;;;5048505;28;19931;-68
2023/06/30 08:10:37;;;;;;;;;;;;;;;;;;5044858;28;19921;-69
2023/06/30 08:13:02;;;;;;;;;;;;;;;;;;5044711;28;19963;-67
2023/06/30 08:15:30;;;;;;;;;;;;;;;;;;5031903;28;20007;-67
2023/06/30 08:17:58;;;;;;;;;;;;;;;;;;5042915;28;20374;-66
2023/06/30 08:20:29;;;;;;;;;;;;;;;;;;5031354;28;19920;-66
2023/06/30 08:22:54;;;;;;;;;;;;;;;;;;5053795;28;19959;-65
2023/06/30 08:25:19;;;;;;;;;;;;;;;;;;5045998;28;20031;-67
2023/06/30 08:27:47;;;;;;;;;;;;;;;;;;5048140;28;19924;-68
2023/06/30 08:30:12;;;;;;;;;;;;;;;;;;5044458;28;20274;-69
2023/06/30 08:32:40;;;;;;;;;;;;;;;;;;5043911;28;19967;-67
2023/06/30 08:35:06;;;;;;;;;;;;;;;;;;5031076;28;20027;-69
2023/06/30 08:37:31;;;;;;;;;;;;;;;;;;5042624;28;20424;-67
2023/06/30 08:43:15;;;;;;;;;;;;;;;;;;5044092;28;19924;-66
2023/06/30 08:45:41;;;;;;;;;;;;;;;;;;5044544;28;19980;-66
2023/06/30 08:54:41;;;;;;;;;;;;;;;;;;5043804;28;19928;-66
2023/06/30 08:57:09;;;;;;;;;;;;;;;;;;5043181;28;19952;-66
2023/06/30 08:59:44;;;;;;;;;;;;;;;;;;5043104;28;20020;-66
2023/06/30 09:02:09;;;;;;;;;;;;;;;;;;5030555;28;19916;-67
2023/06/30 09:04:36;;;;;;;;;;;;;;;;;;5029727;28;19947;-66
2023/06/30 09:07:06;;;;;;;;;;;;;;;;;;5033024;28;19924;-66
2023/06/30 09:09:33;;;;;;;;;;;;;;;;;;5046435;28;19928;-66
2023/06/30 09:11:59;;;;;;;;;;;;;;;;;;5046077;28;19920;-66
2023/06/30 09:14:24;;;;;;;;;;;;;;;;;;5046131;28;19920;-65
2023/06/30 09:16:49;;;;;;;;;;;;;;;;;;5028774;28;19921;-69
2023/06/30 09:19:15;;;;;;;;;;;;;;;;;;5042076;28;20244;-65
2023/06/30 09:21:43;;;;;;;;;;;;;;;;;;5028483;28;20041;-66
2023/06/30 09:24:08;;;;;;;;;;;;;;;;;;5029125;28;20018;-65
2023/06/30 09:26:36;;;;;;;;;;;;;;;;;;5043355;28;20304;-63
2023/06/30 09:29:06;;;;;;;;;;;;;;;;;;5043495;28;20898;-66
2023/06/30 09:31:31;;;;;;;;;;;;;;;;;;5046599;28;20297;-66
2023/06/30 09:33:56;;;;;;;;;;;;;;;;;;5045383;28;19920;-65
2023/06/30 09:36:22;;;;;;;;;;;;;;;;;;5045160;28;19917;-64
2023/06/30 09:38:49;;;;;;;;;;;;;;;;;;5042712;28;19962;-64
2023/06/30 09:41:15;;;;;;;;;;;;;;;;;;5058719;28;19924;-65
2023/06/30 09:43:40;;;;;;;;;;;;;;;;;;5043801;28;20531;-66
2023/06/30 09:46:05;;;;;;;;;;;;;;;;;;5041581;28;21000;-67
2023/06/30 09:48:31;;;;;;;;;;;;;;;;;;5059124;28;20485;-67
2023/06/30 09:51:01;;;;;;;;;;;;;;;;;;5041988;28;20545;-65
2023/06/30 09:53:28;;;;;;;;;;;;;;;;;;5045232;28;20062;-65
2023/06/30 09:55:54;;;;;;;;;;;;;;;;;;5040635;28;20392;-63
2023/06/30 09:58:21;;;;;;;;;;;;;;;;;;5046143;28;19917;-64
2023/06/30 10:00:47;;;;;;;;;;;;;;;;;;5043697;28;20481;-65
2023/06/30 10:03:16;;;;;;;;;;;;;;;;;;5044554;28;19916;-66
2023/06/30 10:05:41;;;;;;;;;;;;;;;;;;5036042;28;19920;-65
2023/06/30 10:08:07;;;;;;;;;;;;;;;;;;5034284;28;19927;-65
2023/06/30 10:10:32;;;;;;;;;;;;;;;;;;5047256;28;20011;-64
2023/06/30 10:13:00;;;;;;;;;;;;;;;;;;5045778;28;20034;-63
2023/06/30 10:15:28;;;;;;;;;;;;;;;;;;5046439;28;19917;-64
2023/06/30 10:17:53;;;;;;;;;;;;;;;;;;5049132;28;19927;-65
2023/06/30 10:20:19;;;;;;;;;;;;;;;;;;5046234;28;19917;-64
2023/06/30 10:22:44;;;;;;;;;;;;;;;;;;5044465;28;20314;-68
2023/06/30 10:25:09;;;;;;;;;;;;;;;;;;5048329;28;19916;-64
2023/06/30 10:27:35;;;;;;;;;;;;;;;;;;5046419;28;21949;-66
2023/06/30 10:30:03;;;;;;;;;;;;;;;;;;5046844;28;19927;-65
2023/06/30 10:32:28;;;;;;;;;;;;;;;;;;5047345;28;19987;-68
2023/06/30 10:34:56;;;;;;;;;;;;;;;;;;5047606;28;21150;-65
2023/06/30 10:37:24;;;;;;;;;;;;;;;;;;5049983;28;20052;-65
2023/06/30 10:39:49;;;;;;;;;;;;;;;;;;5045535;28;20498;-64
2023/06/30 10:42:16;;;;;;;;;;;;;;;;;;5046862;28;19939;-66
2023/06/30 10:44:41;;;;;;;;;;;;;;;;;;5048743;28;19921;-67
2023/06/30 10:47:09;;;;;;;;;;;;;;;;;;5061291;28;19927;-65
2023/06/30 10:49:34;;;;;;;;;;;;;;;;;;5046509;28;19921;-66
2023/06/30 10:51:59;;;;;;;;;;;;;;;;;;5048446;28;19928;-65
2023/06/30 10:54:25;;;;;;;;;;;;;;;;;;5047026;28;20042;-64
2023/06/30 10:56:50;;;;;;;;;;;;;;;;;;5045291;28;20010;-64
2023/06/30 10:59:15;;;;;;;;;;;;;;;;;;5033164;28;19920;-65
2023/06/30 11:01:41;;;;;;;;;;;;;;;;;;5029110;28;19928;-63
2023/06/30 11:04:06;;;;;;;;;;;;;;;;;;5047488;28;20335;-64
2023/06/30 11:06:31;;;;;;;;;;;;;;;;;;5044582;28;20456;-64
2023/06/30 11:09:00;;;;;;;;;;;;;;;;;;5062077;28;19916;-66
2023/06/30 11:11:27;;;;;;;;;;;;;;;;;;5062069;28;19997;-65
2023/06/30 11:13:54;;;;;;;;;;;;;;;;;;5031212;28;20051;-66
2023/06/30 11:16:22;;;;;;;;;;;;;;;;;;5031441;28;19917;-65
2023/06/30 11:18:47;;;;;;;;;;;;;;;;;;5045758;28;20549;-66
2023/06/30 11:21:15;;;;;;;;;;;;;;;;;;5032763;28;19959;-66
2023/06/30 11:23:45;;;;;;;;;;;;;;;;;;5062067;28;19920;-69
2023/06/30 11:26:16;;;;;;;;;;;;;;;;;;5032533;28;19920;-66
2023/06/30 11:28:41;;;;;;;;;;;;;;;;;;5060990;28;19932;-66
2023/06/30 11:31:10;;;;;;;;;;;;;;;;;;5044772;28;19955;-66
2023/06/30 11:33:36;;;;;;;;;;;;;;;;;;5047479;28;19920;-65
2023/06/30 11:36:01;;;;;;;;;;;;;;;;;;5041981;28;21863;-65
2023/06/30 11:38:26;;;;;;;;;;;;;;;;;;5033181;28;19920;-64
2023/06/30 11:40:56;;;;;;;;;;;;;;;;;;5045812;28;19952;-67
2023/06/30 11:43:22;;;;;;;;;;;;;;;;;;5047135;28;19920;-67
2023/06/30 11:45:47;;;;;;;;;;;;;;;;;;5045102;28;19959;-66
2023/06/30 11:48:13;;;;;;;;;;;;;;;;;;5043693;28;19916;-69
2023/06/30 11:50:38;;;;;;;;;;;;;;;;;;5043936;28;19935;-64
2023/06/30 11:53:06;;;;;;;;;;;;;;;;;;5044726;28;20383;-66
2023/06/30 11:55:31;;;;;;;;;;;;;;;;;;5045749;28;19923;-67
2023/06/30 11:58:00;;;;;;;;;;;;;;;;;;5046893;28;21840;-65
2023/06/30 12:00:27;;;;;;;;;;;;;;;;;;5045265;28;19917;-66
2023/06/30 12:02:53;;;;;;;;;;;;;;;;;;5044393;28;19916;-66
2023/06/30 12:05:21;;;;;;;;;;;;;;;;;;5044274;28;19921;-66
2023/06/30 12:07:49;;;;;;;;;;;;;;;;;;5031744;28;19966;-66
2023/06/30 12:10:14;;;;;;;;;;;;;;;;;;5060535;28;19920;-64
2023/06/30 12:12:40;;;;;;;;;;;;;;;;;;5044087;28;19994;-65
2023/06/30 12:15:11;;;;;;;;;;;;;;;;;;5046784;28;20015;-67
2023/06/30 12:17:39;;;;;;;;;;;;;;;;;;5032814;28;19916;-67
2023/06/30 12:20:10;;;;;;;;;;;;;;;;;;5047469;28;20853;-65
2023/06/30 12:22:35;;;;;;;;;;;;;;;;;;5046066;28;19936;-67
2023/06/30 12:25:00;;;;;;;;;;;;;;;;;;5048046;28;19921;-67
2023/06/30 12:27:29;;;;;;;;;;;;;;;;;;5045008;28;19920;-65
2023/06/30 12:29:55;;;;;;;;;;;;;;;;;;5044126;28;19924;-67
2023/06/30 12:32:20;;;;;;;;;;;;;;;;;;5063033;28;20019;-66
2023/06/30 12:34:48;;;;;;;;;;;;;;;;;;5044965;28;19923;-66
2023/06/30 12:37:17;;;;;;;;;;;;;;;;;;5033012;28;19916;-68
2023/06/30 12:39:43;;;;;;;;;;;;;;;;;;5045977;28;19933;-67
2023/06/30 12:42:11;;;;;;;;;;;;;;;;;;5045726;28;20565;-66
2023/06/30 12:44:39;;;;;;;;;;;;;;;;;;5043053;28;19986;-65
2023/06/30 12:47:07;;;;;;;;;;;;;;;;;;5030767;28;19920;-66
2023/06/30 12:49:37;;;;;;;;;;;;;;;;;;5043946;28;20957;-64
2023/06/30 12:52:02;;;;;;;;;;;;;;;;;;5048455;28;20030;-65
2023/06/30 12:54:30;;;;;;;;;;;;;;;;;;5030822;28;20382;-68
2023/06/30 12:56:58;;;;;;;;;;;;;;;;;;5045037;28;20267;-68
2023/06/30 12:59:26;;;;;;;;;;;;;;;;;;5046042;28;19989;-65
2023/06/30 13:01:51;;;;;;;;;;;;;;;;;;5059571;28;19928;-66
2023/06/30 13:04:16;;;;;;;;;;;;;;;;;;5042914;28;19917;-66
2023/06/30 13:06:44;;;;;;;;;;;;;;;;;;5040121;28;19921;-65
2023/06/30 13:09:09;;;;;;;;;;;;;;;;;;5032520;28;20905;-66
2023/06/30 13:11:35;;;;;;;;;;;;;;;;;;5030444;28;20007;-65
2023/06/30 13:14:00;;;;;;;;;;;;;;;;;;5030277;28;20416;-66
2023/06/30 13:16:31;;;;;;;;;;;;;;;;;;5040682;28;19920;-66
2023/06/30 13:18:57;;;;;;;;;;;;;;;;;;5045788;28;19916;-67
2023/06/30 13:21:25;;;;;;;;;;;;;;;;;;5046205;28;20018;-67
2023/06/30 13:23:53;;;;;;;;;;;;;;;;;;5046956;28;20058;-68
2023/06/30 13:26:18;;;;;;;;;;;;;;;;;;5060514;28;20023;-66
2023/06/30 13:28:44;;;;;;;;;;;;;;;;;;5041496;28;19920;-67
2023/06/30 13:31:09;;;;;;;;;;;;;;;;;;5030448;28;20006;-67
2023/06/30 13:33:34;;;;;;;;;;;;;;;;;;5046215;28;19943;-67
2023/06/30 13:35:59;;;;;;;;;;;;;;;;;;5058288;28;20771;-70
2023/06/30 13:38:25;;;;;;;;;;;;;;;;;;5059684;28;19977;-67
2023/06/30 13:40:50;;;;;;;;;;;;;;;;;;5028925;28;19986;-68
2023/06/30 13:43:18;;;;;;;;;;;;;;;;;;5046909;28;19920;-66
2023/06/30 13:45:46;;;;;;;;;;;;;;;;;;5028379;28;20356;-65
2023/06/30 13:48:13;;;;;;;;;;;;;;;;;;5046861;28;19963;-65
2023/06/30 13:50:40;;;;;;;;;;;;;;;;;;5030673;28;19966;-65
2023/06/30 13:53:05;;;;;;;;;;;;;;;;;;5047220;28;20324;-66
2023/06/30 13:55:31;;;;;;;;;;;;;;;;;;5059199;28;19922;-66
2023/06/30 13:57:56;;;;;;;;;;;;;;;;;;5045285;28;19936;-70
2023/06/30 14:00:22;;;;;;;;;;;;;;;;;;5043910;28;19921;-65
2023/06/30 14:02:50;;;;;;;;;;;;;;;;;;5029512;28;19932;-67
2023/06/30 14:05:20;;;;;;;;;;;;;;;;;;5046982;28;20530;-65
2023/06/30 14:07:45;;;;;;;;;;;;;;;;;;5047516;28;20348;-66
2023/06/30 14:10:13;;;;;;;;;;;;;;;;;;5045169;28;19932;-67
2023/06/30 14:12:41;;;;;;;;;;;;;;;;;;5045696;28;19966;-70
2023/06/30 14:15:06;;;;;;;;;;;;;;;;;;5030217;28;19916;-66
2023/06/30 14:17:34;;;;;;;;;;;;;;;;;;5045419;28;19921;-67
2023/06/30 14:20:00;;;;;;;;;;;;;;;;;;5041006;28;19920;-66
2023/06/30 14:22:25;;;;;;;;;;;;;;;;;;5027778;28;19920;-68
2023/06/30 14:24:50;;;;;;;;;;;;;;;;;;5044375;28;19998;-68
2023/06/30 14:27:16;;;;;;;;;;;;;;;;;;5042189;28;20412;-67
2023/06/30 14:29:43;;;;;;;;;;;;;;;;;;5041162;28;19920;-65
2023/06/30 14:32:09;;;;;;;;;;;;;;;;;;5044438;28;19959;-67
2023/06/30 14:34:34;;;;;;;;;;;;;;;;;;5042050;28;20011;-67
2023/06/30 14:36:59;;;;;;;;;;;;;;;;;;5030124;28;19931;-65
2023/06/30 14:39:27;;;;;;;;;;;;;;;;;;5027380;28;19956;-65
2023/06/30 14:41:58;;;;;;;;;;;;;;;;;;5041792;28;20403;-65
2023/06/30 14:44:25;;;;;;;;;;;;;;;;;;5029256;28;19920;-66
2023/06/30 14:46:50;;;;;;;;;;;;;;;;;;5044282;28;19927;-67
2023/06/30 14:49:21;;;;;;;;;;;;;;;;;;5044697;28;19932;-65
2023/06/30 14:51:46;;;;;;;;;;;;;;;;;;5047101;28;19930;-67
2023/06/30 14:54:12;;;;;;;;;;;;;;;;;;5046397;28;19916;-67
2023/06/30 14:56:39;;;;;;;;;;;;;;;;;;5031083;28;19964;-67
2023/06/30 14:59:05;;;;;;;;;;;;;;;;;;5049642;28;19920;-65
2023/06/30 15:01:30;;;;;;;;;;;;;;;;;;5032651;28;19924;-65
2023/06/30 15:03:55;;;;;;;;;;;;;;;;;;5049749;28;19927;-67
2023/06/30 15:06:21;;;;;;;;;;;;;;;;;;5046378;28;19916;-69
2023/06/30 15:08:48;;;;;;;;;;;;;;;;;;5033654;28;19916;-68
2023/06/30 15:11:13;;;;;;;;;;;;;;;;;;5059908;28;20042;-68
2023/06/30 15:13:39;;;;;;;;;;;;;;;;;;5031529;28;19974;-69
2023/06/30 15:16:04;;;;;;;;;;;;;;;;;;5047424;28;19924;-66
2023/06/30 15:18:29;;;;;;;;;;;;;;;;;;5048550;28;19985;-68
2023/06/30 15:20:55;;;;;;;;;;;;;;;;;;5062957;28;19917;-68
2023/06/30 15:23:26;;;;;;;;;;;;;;;;;;5045954;28;19978;-68
2023/06/30 15:25:51;;;;;;;;;;;;;;;;;;5046894;28;19917;-67
2023/06/30 15:28:17;;;;;;;;;;;;;;;;;;5032065;28;19927;-66
2023/06/30 15:30:42;;;;;;;;;;;;;;;;;;5046706;28;20034;-66
2023/06/30 15:33:10;;;;;;;;;;;;;;;;;;5046459;28;19927;-67
2023/06/30 15:35:36;;;;;;;;;;;;;;;;;;5047180;28;19921;-69
2023/06/30 15:38:02;;;;;;;;;;;;;;;;;;5046581;28;19978;-68
2023/06/30 15:40:32;;;;;;;;;;;;;;;;;;5048433;28;21739;-67
2023/06/30 15:42:57;;;;;;;;;;;;;;;;;;5042970;28;19920;-67
2023/06/30 15:45:25;;;;;;;;;;;;;;;;;;5060457;28;20022;-65
2023/06/30 15:47:50;;;;;;;;;;;;;;;;;;5035030;28;20834;-66
2023/06/30 15:50:15;;;;;;;;;;;;;;;;;;5045968;28;20024;-64
2023/06/30 15:52:41;;;;;;;;;;;;;;;;;;5047585;28;19923;-66
2023/06/30 15:55:07;;;;;;;;;;;;;;;;;;5045193;28;20027;-66
2023/06/30 15:57:35;;;;;;;;;;;;;;;;;;5044663;28;19927;-71
2023/06/30 16:00:00;;;;;;;;;;;;;;;;;;5032701;28;20358;-69
2023/06/30 16:02:25;;;;;;;;;;;;;;;;;;5046206;28;19927;-66
2023/06/30 16:04:51;;;;;;;;;;;;;;;;;;5045480;28;19920;-69
2023/06/30 16:07:16;;;;;;;;;;;;;;;;;;5031939;28;19920;-68
2023/06/30 16:09:47;;;;;;;;;;;;;;;;;;5044417;28;19923;-67
2023/06/30 16:12:15;;;;;;;;;;;;;;;;;;5046713;28;19939;-67
2023/06/30 16:14:40;;;;;;;;;;;;;;;;;;5031911;28;20360;-68
2023/06/30 16:17:08;;;;;;;;;;;;;;;;;;5042685;28;19923;-67
2023/06/30 16:19:33;;;;;;;;;;;;;;;;;;5044131;28;19919;-66
2023/06/30 16:21:58;;;;;;;;;;;;;;;;;;5061153;28;19921;-70
2023/06/30 16:24:27;;;;;;;;;;;;;;;;;;5043887;28;19920;-67
2023/06/30 16:26:52;;;;;;;;;;;;;;;;;;5056383;28;20009;-68
2023/06/30 16:29:23;;;;;;;;;;;;;;;;;;5044574;28;19920;-68
2023/06/30 16:31:48;;;;;;;;;;;;;;;;;;5055275;28;19925;-66
2023/06/30 16:34:16;;;;;;;;;;;;;;;;;;5045404;28;20379;-67
2023/06/30 16:36:46;;;;;;;;;;;;;;;;;;5062071;28;19931;-66
2023/06/30 16:39:12;;;;;;;;;;;;;;;;;;5044942;28;20377;-67
2023/06/30 16:41:37;;;;;;;;;;;;;;;;;;5046159;28;19931;-66
2023/06/30 16:44:02;;;;;;;;;;;;;;;;;;5056267;28;19928;-67
2023/06/30 16:46:27;;;;;;;;;;;;;;;;;;5042553;28;20367;-68
2023/06/30 16:48:53;;;;;;;;;;;;;;;;;;5044712;28;19920;-66